createdAt,value
2022-08-07T00:00:18.602Z,14.64
2022-08-07T00:00:50.344Z,14.64
2022-08-07T00:02:37.561Z,14.64
2022-08-07T00:02:39.816Z,14.62
2022-08-07T00:03:06.064Z,14.63
2022-08-07T00:03:40.385Z,14.60
2022-08-07T00:04:24.658Z,14.61
2022-08-07T00:04:56.253Z,14.59
2022-08-07T00:05:28.143Z,14.59
2022-08-07T00:06:01.955Z,14.60
2022-08-07T00:06:34.315Z,14.58
2022-08-07T00:07:09.474Z,14.60
2022-08-07T00:07:41.732Z,14.59
2022-08-07T00:08:14.438Z,14.55
2022-08-07T00:08:46.023Z,14.56
2022-08-07T00:09:20.891Z,14.55
2022-08-07T00:10:04.923Z,14.57
2022-08-07T00:10:47.630Z,14.56
2022-08-07T00:11:20.117Z,14.55
2022-08-07T00:12:01.600Z,14.52
2022-08-07T00:12:33.094Z,14.50
2022-08-07T00:13:17.489Z,14.54
2022-08-07T00:13:57.248Z,14.48
2022-08-07T00:14:31.756Z,14.48
2022-08-07T00:15:03.565Z,14.49
2022-08-07T00:15:36.049Z,14.47
2022-08-07T00:16:17.597Z,14.46
2022-08-07T00:17:01.771Z,14.43
2022-08-07T00:17:35.263Z,14.43
2022-08-07T00:18:08.995Z,14.46
2022-08-07T00:18:51.787Z,14.46
2022-08-07T00:19:26.074Z,14.43
2022-08-07T00:20:06.604Z,14.43
2022-08-07T00:20:39.845Z,14.43
2022-08-07T00:21:56.269Z,14.41
2022-08-07T00:22:03.472Z,14.41
2022-08-07T00:22:35.764Z,14.40
2022-08-07T00:23:07.935Z,14.40
2022-08-07T00:23:40.669Z,14.40
2022-08-07T00:24:12.133Z,14.40
2022-08-07T00:24:43.750Z,14.37
2022-08-07T00:25:17.265Z,14.39
2022-08-07T00:25:52.109Z,14.39
2022-08-07T00:26:58.908Z,14.39
2022-08-07T00:27:25.047Z,14.39
2022-08-07T00:28:07.236Z,14.37
2022-08-07T00:28:45.608Z,14.34
2022-08-07T00:29:19.302Z,14.29
2022-08-07T00:29:54.809Z,14.32
2022-08-07T00:30:28.640Z,14.33
2022-08-07T00:31:00.940Z,14.28
2022-08-07T00:31:38.092Z,14.30
2022-08-07T00:32:13.869Z,14.29
2022-08-07T00:32:49.727Z,14.30
2022-08-07T00:33:26.405Z,14.30
2022-08-07T00:34:49.253Z,14.29
2022-08-07T00:35:23.091Z,14.28
2022-08-07T00:35:55.911Z,14.27
2022-08-07T00:36:27.424Z,14.27
2022-08-07T00:37:00.720Z,14.25
2022-08-07T00:37:48.149Z,14.26
2022-08-07T00:38:31.244Z,14.26
2022-08-07T00:39:03.527Z,14.24
2022-08-07T00:39:35.493Z,14.22
2022-08-07T00:40:07.532Z,14.20
2022-08-07T00:41:04.220Z,14.21
2022-08-07T00:41:53.555Z,14.21
2022-08-07T00:42:33.980Z,14.18
2022-08-07T00:43:59.326Z,14.16
2022-08-07T00:44:03.429Z,14.15
2022-08-07T00:44:35.172Z,14.16
2022-08-07T00:45:16.117Z,14.14
2022-08-07T00:45:48.929Z,14.11
2022-08-07T00:46:22.422Z,14.09
2022-08-07T00:46:53.986Z,14.11
2022-08-07T00:48:07.993Z,14.12
2022-08-07T00:48:18.727Z,14.07
2022-08-07T00:48:56.503Z,14.09
2022-08-07T00:50:21.454Z,14.07
2022-08-07T00:50:46.630Z,14.09
2022-08-07T00:51:16.185Z,14.06
2022-08-07T00:51:58.515Z,14.06
2022-08-07T00:52:33.257Z,14.04
2022-08-07T00:53:09.250Z,14.03
2022-08-07T00:53:50.139Z,14.04
2022-08-07T00:54:26.545Z,14.06
2022-08-07T00:54:59.250Z,14.04
2022-08-07T00:56:00.774Z,14.05
2022-08-07T00:56:46.517Z,14.04
2022-08-07T00:57:23.564Z,14.03
2022-08-07T00:57:57.278Z,14.02
2022-08-07T00:58:28.712Z,14.00
2022-08-07T00:59:01.119Z,14.00
2022-08-07T00:59:35.726Z,13.96
2022-08-07T01:00:08.477Z,13.98
2022-08-07T01:00:40.051Z,13.97
2022-08-07T01:01:26.014Z,13.94
2022-08-07T01:01:57.918Z,13.93
2022-08-07T01:02:29.758Z,13.93
2022-08-07T01:03:01.463Z,13.91
2022-08-07T01:03:55.928Z,13.93
2022-08-07T01:04:25.572Z,13.91
2022-08-07T01:05:06.712Z,13.92
2022-08-07T01:05:53.716Z,13.89
2022-08-07T01:06:25.898Z,13.90
2022-08-07T01:06:57.614Z,13.88
2022-08-07T01:07:30.843Z,13.90
2022-08-07T01:08:03.067Z,13.88
2022-08-07T01:08:34.697Z,13.89
2022-08-07T01:09:06.213Z,13.84
2022-08-07T01:10:06.873Z,13.87
2022-08-07T01:10:30.943Z,13.84
2022-08-07T01:12:04.595Z,13.83
2022-08-07T01:12:09.388Z,13.86
2022-08-07T01:12:53.747Z,13.85
2022-08-07T01:13:26.771Z,13.86
2022-08-07T01:14:08.873Z,13.83
2022-08-07T01:14:40.486Z,13.81
2022-08-07T01:15:17.672Z,13.79
2022-08-07T01:16:05.223Z,13.80
2022-08-07T01:16:37.692Z,13.76
2022-08-07T01:17:10.700Z,13.78
2022-08-07T01:17:42.379Z,13.76
2022-08-07T01:18:17.497Z,13.75
2022-08-07T01:18:49.392Z,13.75
2022-08-07T01:19:22.932Z,13.74
2022-08-07T01:19:58.285Z,13.73
2022-08-07T01:20:35.183Z,13.74
2022-08-07T01:21:22.740Z,13.74
2022-08-07T01:21:56.165Z,13.73
2022-08-07T01:23:00.618Z,13.74
2022-08-07T01:23:43.756Z,13.73
2022-08-07T01:24:21.362Z,13.72
2022-08-07T01:24:53.896Z,13.71
2022-08-07T01:25:53.690Z,13.71
2022-08-07T01:26:22.361Z,13.70
2022-08-07T01:26:59.722Z,13.67
2022-08-07T01:27:32.394Z,13.67
2022-08-07T01:28:04.272Z,13.67
2022-08-07T01:28:36.815Z,13.66
2022-08-07T01:29:08.335Z,13.65
2022-08-07T01:29:40.305Z,13.65
2022-08-07T01:30:12.363Z,13.63
2022-08-07T01:30:51.378Z,13.66
2022-08-07T01:31:42.708Z,13.65
2022-08-07T01:32:17.942Z,13.65
2022-08-07T01:32:50.098Z,13.63
2022-08-07T01:33:22.640Z,13.63
2022-08-07T01:33:57.450Z,13.62
2022-08-07T01:34:35.136Z,13.61
2022-08-07T01:35:07.241Z,13.60
2022-08-07T01:36:33.533Z,13.61
2022-08-07T01:37:09.753Z,13.59
2022-08-07T01:37:41.977Z,13.58
2022-08-07T01:38:13.729Z,13.57
2022-08-07T01:38:57.016Z,13.56
2022-08-07T01:39:40.603Z,13.55
2022-08-07T01:40:21.492Z,13.53
2022-08-07T01:40:58.433Z,13.54
2022-08-07T01:41:30.114Z,13.52
2022-08-07T01:42:37.844Z,13.48
2022-08-07T01:43:11.168Z,13.48
2022-08-07T01:43:42.920Z,13.46
2022-08-07T01:44:15.358Z,13.43
2022-08-07T01:44:48.186Z,13.47
2022-08-07T01:45:23.073Z,13.47
2022-08-07T01:46:12.312Z,13.47
2022-08-07T01:48:20.088Z,13.44
2022-08-07T01:48:21.064Z,13.42
2022-08-07T01:48:53.215Z,13.43
2022-08-07T01:49:24.615Z,13.43
2022-08-07T01:49:57.749Z,13.43
2022-08-07T01:50:33.001Z,13.42
2022-08-07T01:52:01.986Z,13.41
2022-08-07T01:52:04.896Z,13.41
2022-08-07T01:52:39.042Z,13.39
2022-08-07T01:54:06.248Z,13.37
2022-08-07T01:54:33.163Z,13.37
2022-08-07T01:55:10.846Z,13.35
2022-08-07T01:55:58.352Z,13.35
2022-08-07T01:56:55.381Z,13.34
2022-08-07T01:58:06.788Z,13.35
2022-08-07T01:58:29.986Z,13.34
2022-08-07T01:59:15.709Z,13.33
2022-08-07T01:59:54.617Z,13.32
2022-08-07T02:00:30.782Z,13.30
2022-08-07T02:02:10.404Z,13.29
2022-08-07T02:03:19.081Z,13.28
2022-08-07T02:03:53.469Z,13.24
2022-08-07T02:04:32.958Z,13.24
2022-08-07T02:05:09.158Z,13.21
2022-08-07T02:06:32.004Z,13.22
2022-08-07T02:07:04.523Z,13.20
2022-08-07T02:07:50.184Z,13.19
2022-08-07T02:08:25.860Z,13.19
2022-08-07T02:09:00.315Z,13.17
2022-08-07T02:09:43.639Z,13.19
2022-08-07T02:10:26.708Z,13.20
2022-08-07T02:10:59.871Z,13.19
2022-08-07T02:12:04.279Z,13.18
2022-08-07T02:12:31.130Z,13.18
2022-08-07T02:13:04.517Z,13.19
2022-08-07T02:13:58.193Z,13.19
2022-08-07T02:14:40.703Z,13.19
2022-08-07T02:15:14.251Z,13.19
2022-08-07T02:15:49.877Z,13.19
2022-08-07T02:16:28.594Z,13.20
2022-08-07T02:17:06.173Z,13.19
2022-08-07T02:17:39.451Z,13.21
2022-08-07T02:18:13.345Z,13.20
2022-08-07T02:18:47.231Z,13.19
2022-08-07T02:20:04.739Z,13.17
2022-08-07T02:20:19.803Z,13.18
2022-08-07T02:20:57.605Z,13.19
2022-08-07T02:21:55.423Z,13.20
2022-08-07T02:22:30.518Z,13.19
2022-08-07T02:23:23.981Z,13.18
2022-08-07T02:23:58.167Z,13.17
2022-08-07T02:24:33.936Z,13.17
2022-08-07T02:25:17.480Z,13.17
2022-08-07T02:26:31.411Z,13.18
2022-08-07T02:26:42.252Z,13.18
2022-08-07T02:27:17.116Z,13.16
2022-08-07T02:27:52.211Z,13.16
2022-08-07T02:28:28.744Z,13.16
2022-08-07T02:29:02.128Z,13.12
2022-08-07T02:29:43.373Z,13.15
2022-08-07T02:30:20.823Z,13.13
2022-08-07T02:30:53.616Z,13.16
2022-08-07T02:31:28.755Z,13.12
2022-08-07T02:32:02.415Z,13.13
2022-08-07T02:32:39.625Z,13.16
2022-08-07T02:33:41.900Z,13.15
2022-08-07T02:34:21.338Z,13.10
2022-08-07T02:34:57.922Z,13.07
2022-08-07T02:36:29.122Z,13.09
2022-08-07T02:36:30.568Z,13.12
2022-08-07T02:37:08.318Z,13.09
2022-08-07T02:38:35.415Z,13.10
2022-08-07T02:39:42.964Z,13.10
2022-08-07T02:40:31.037Z,13.09
2022-08-07T02:41:08.003Z,13.06
2022-08-07T02:41:47.334Z,13.05
2022-08-07T02:42:26.361Z,13.04
2022-08-07T02:42:59.189Z,13.02
2022-08-07T02:43:31.496Z,13.03
2022-08-07T02:44:05.094Z,13.01
2022-08-07T02:44:37.768Z,12.98
2022-08-07T02:45:58.787Z,12.99
2022-08-07T02:46:09.639Z,12.98
2022-08-07T02:46:46.666Z,12.98
2022-08-07T02:47:23.913Z,12.96
2022-08-07T02:47:55.726Z,12.95
2022-08-07T02:48:31.048Z,12.97
2022-08-07T02:49:04.092Z,12.97
2022-08-07T02:49:58.754Z,12.95
2022-08-07T02:50:30.864Z,12.95
2022-08-07T02:51:07.641Z,12.93
2022-08-07T02:52:03.235Z,12.95
2022-08-07T02:52:40.047Z,12.91
2022-08-07T02:53:17.959Z,12.91
2022-08-07T02:53:54.199Z,12.90
2022-08-07T02:54:30.481Z,12.89
2022-08-07T02:55:27.376Z,12.89
2022-08-07T02:56:06.505Z,12.89
2022-08-07T02:57:39.912Z,12.85
2022-08-07T02:58:21.615Z,12.85
2022-08-07T02:58:55.389Z,12.85
2022-08-07T02:59:28.740Z,12.84
2022-08-07T03:00:04.982Z,12.83
2022-08-07T03:00:39.283Z,12.83
2022-08-07T03:01:18.514Z,12.83
2022-08-07T03:01:52.136Z,12.79
2022-08-07T03:02:26.539Z,12.80
2022-08-07T03:03:00.004Z,12.76
2022-08-07T03:03:49.215Z,12.79
2022-08-07T03:04:23.521Z,12.77
2022-08-07T03:04:56.901Z,12.75
2022-08-07T03:05:35.702Z,12.76
2022-08-07T03:06:16.647Z,12.75
2022-08-07T03:06:59.862Z,12.73
2022-08-07T03:08:04.538Z,12.72
2022-08-07T03:08:33.490Z,12.71
2022-08-07T03:09:11.147Z,12.72
2022-08-07T03:10:33.993Z,12.71
2022-08-07T03:11:06.315Z,12.71
2022-08-07T03:11:51.962Z,12.71
2022-08-07T03:12:30.810Z,12.68
2022-08-07T03:13:03.304Z,12.65
2022-08-07T03:13:38.741Z,12.64
2022-08-07T03:14:11.427Z,12.64
2022-08-07T03:14:48.556Z,12.63
2022-08-07T03:15:30.293Z,12.61
2022-08-07T03:16:16.354Z,12.61
2022-08-07T03:16:50.181Z,12.60
2022-08-07T03:17:24.262Z,12.58
2022-08-07T03:17:57.607Z,12.58
2022-08-07T03:18:35.084Z,12.58
2022-08-07T03:19:08.352Z,12.60
2022-08-07T03:19:41.402Z,12.61
2022-08-07T03:20:14.194Z,12.60
2022-08-07T03:20:46.839Z,12.62
2022-08-07T03:21:19.188Z,12.62
2022-08-07T03:21:52.511Z,12.63
2022-08-07T03:22:30.206Z,12.64
2022-08-07T03:23:03.009Z,12.63
2022-08-07T03:24:19.719Z,12.65
2022-08-07T03:24:50.732Z,12.63
2022-08-07T03:25:23.724Z,12.62
2022-08-07T03:25:58.483Z,12.63
2022-08-07T03:26:33.310Z,12.61
2022-08-07T03:27:08.974Z,12.62
2022-08-07T03:27:59.505Z,12.62
2022-08-07T03:28:37.516Z,12.62
2022-08-07T03:29:14.750Z,12.62
2022-08-07T03:29:51.109Z,12.62
2022-08-07T03:30:24.293Z,12.62
2022-08-07T03:31:16.914Z,12.62
2022-08-07T03:31:51.228Z,12.61
2022-08-07T03:32:33.353Z,12.59
2022-08-07T03:33:08.025Z,12.61
2022-08-07T03:33:44.316Z,12.60
2022-08-07T03:34:22.334Z,12.61
2022-08-07T03:35:16.968Z,12.55
2022-08-07T03:35:50.813Z,12.59
2022-08-07T03:36:26.549Z,12.58
2022-08-07T03:37:12.127Z,12.52
2022-08-07T03:37:53.934Z,12.52
2022-08-07T03:38:29.409Z,12.54
2022-08-07T03:39:08.937Z,12.52
2022-08-07T03:39:58.984Z,12.51
2022-08-07T03:40:36.362Z,12.50
2022-08-07T03:41:10.461Z,12.47
2022-08-07T03:41:47.553Z,12.50
2022-08-07T03:42:22.994Z,12.50
2022-08-07T03:42:55.481Z,12.51
2022-08-07T03:43:32.398Z,12.46
2022-08-07T03:44:05.251Z,12.49
2022-08-07T03:44:38.435Z,12.49
2022-08-07T03:45:29.936Z,12.50
2022-08-07T03:46:03.582Z,12.49
2022-08-07T03:47:11.323Z,12.48
2022-08-07T03:47:47.992Z,12.45
2022-08-07T03:48:23.075Z,12.44
2022-08-07T03:49:02.743Z,12.43
2022-08-07T03:49:35.860Z,12.43
2022-08-07T03:50:07.681Z,12.42
2022-08-07T03:50:56.146Z,12.43
2022-08-07T03:51:47.794Z,12.42
2022-08-07T03:52:27.439Z,12.41
2022-08-07T03:53:00.174Z,12.40
2022-08-07T03:54:05.949Z,12.39
2022-08-07T03:54:35.954Z,12.39
2022-08-07T03:55:14.732Z,12.37
2022-08-07T03:55:58.027Z,12.35
2022-08-07T03:56:39.077Z,12.37
2022-08-07T03:58:34.046Z,12.36
2022-08-07T03:59:04.641Z,12.36
2022-08-07T03:59:16.775Z,12.36
2022-08-07T04:00:02.733Z,12.36
2022-08-07T04:00:37.229Z,12.36
2022-08-07T04:01:14.495Z,12.35
2022-08-07T04:01:47.156Z,12.36
2022-08-07T04:02:18.688Z,12.36
2022-08-07T04:02:50.647Z,12.37
2022-08-07T04:03:28.402Z,12.38
2022-08-07T04:04:20.398Z,12.37
2022-08-07T04:04:52.112Z,12.37
2022-08-07T04:05:23.994Z,12.37
2022-08-07T04:06:00.600Z,12.37
2022-08-07T04:06:37.634Z,12.37
2022-08-07T04:07:16.695Z,12.37
2022-08-07T04:07:50.469Z,12.38
2022-08-07T04:08:23.274Z,12.36
2022-08-07T04:08:56.928Z,12.35
2022-08-07T04:09:45.522Z,12.35
2022-08-07T04:10:20.849Z,12.37
2022-08-07T04:12:21.174Z,12.36
2022-08-07T04:12:21.467Z,12.37
2022-08-07T04:12:42.031Z,12.33
2022-08-07T04:13:15.466Z,12.34
2022-08-07T04:14:14.030Z,12.35
2022-08-07T04:14:43.912Z,12.34
2022-08-07T04:15:18.996Z,12.36
2022-08-07T04:15:50.783Z,12.36
2022-08-07T04:16:31.435Z,12.34
2022-08-07T04:17:04.141Z,12.34
2022-08-07T04:18:31.988Z,12.34
2022-08-07T04:18:59.655Z,12.34
2022-08-07T04:19:51.246Z,12.35
2022-08-07T04:20:25.316Z,12.33
2022-08-07T04:21:16.618Z,12.36
2022-08-07T04:22:14.451Z,12.34
2022-08-07T04:22:53.548Z,12.34
2022-08-07T04:23:43.962Z,12.34
2022-08-07T04:24:33.932Z,12.33
2022-08-07T04:25:12.585Z,12.34
2022-08-07T04:25:45.392Z,12.32
2022-08-07T04:26:21.976Z,12.33
2022-08-07T04:26:53.636Z,12.32
2022-08-07T04:27:26.570Z,12.32
2022-08-07T04:28:10.323Z,12.34
2022-08-07T04:28:44.995Z,12.33
2022-08-07T04:29:16.454Z,12.33
2022-08-07T04:29:58.601Z,12.34
2022-08-07T04:30:35.553Z,12.34
2022-08-07T04:31:19.622Z,12.35
2022-08-07T04:32:02.926Z,12.35
2022-08-07T04:32:44.980Z,12.35
2022-08-07T04:33:19.657Z,12.33
2022-08-07T04:33:56.671Z,12.36
2022-08-07T04:34:33.097Z,12.34
2022-08-07T04:35:07.314Z,12.35
2022-08-07T04:35:50.520Z,12.33
2022-08-07T04:36:26.251Z,12.34
2022-08-07T04:36:58.014Z,12.34
2022-08-07T04:38:00.855Z,12.32
2022-08-07T04:38:23.132Z,12.34
2022-08-07T04:38:54.661Z,12.33
2022-08-07T04:39:26.413Z,12.30
2022-08-07T04:39:58.142Z,12.31
2022-08-07T04:40:32.448Z,12.29
2022-08-07T04:41:04.633Z,12.31
2022-08-07T04:41:36.960Z,12.29
2022-08-07T04:42:08.484Z,12.32
2022-08-07T04:42:39.883Z,12.30
2022-08-07T04:43:17.649Z,12.33
2022-08-07T04:44:18.372Z,12.32
2022-08-07T04:44:54.700Z,12.32
2022-08-07T04:45:57.733Z,12.33
2022-08-07T04:46:42.794Z,12.33
2022-08-07T04:47:57.017Z,12.32
2022-08-07T04:48:55.441Z,12.31
2022-08-07T04:49:47.505Z,12.31
2022-08-07T04:50:37.451Z,12.32
2022-08-07T04:51:41.833Z,12.31
2022-08-07T04:52:36.739Z,12.32
2022-08-07T04:53:27.780Z,12.32
2022-08-07T04:54:30.171Z,12.32
2022-08-07T04:55:15.648Z,12.31
2022-08-07T04:58:13.926Z,12.28
2022-08-07T04:58:16.755Z,12.30
2022-08-07T04:58:33.602Z,12.26
2022-08-07T05:00:12.687Z,12.27
2022-08-07T05:00:50.051Z,12.27
2022-08-07T05:01:37.287Z,12.25
2022-08-07T05:02:35.442Z,12.25
2022-08-07T05:04:47.175Z,12.25
2022-08-07T05:05:52.061Z,12.26
2022-08-07T05:06:43.292Z,12.24
2022-08-07T05:07:36.696Z,12.27
2022-08-07T05:09:00.047Z,12.28
2022-08-07T05:09:46.063Z,12.29
2022-08-07T05:10:49.251Z,12.32
2022-08-07T05:11:56.799Z,12.33
2022-08-07T05:12:38.163Z,12.35
2022-08-07T05:14:53.755Z,12.37
2022-08-07T05:14:54.052Z,12.36
2022-08-07T05:15:38.797Z,12.37
2022-08-07T05:16:14.809Z,12.39
2022-08-07T05:16:52.918Z,12.40
2022-08-07T05:17:52.933Z,12.41
2022-08-07T05:18:32.512Z,12.43
2022-08-07T05:19:10.526Z,12.46
2022-08-07T05:19:46.903Z,12.48
2022-08-07T05:20:25.688Z,12.51
2022-08-07T05:21:00.452Z,12.52
2022-08-07T05:22:00.835Z,12.53
2022-08-07T05:22:27.645Z,12.54
2022-08-07T05:23:06.854Z,12.54
2022-08-07T05:23:53.215Z,12.57
2022-08-07T05:24:30.421Z,12.59
2022-08-07T05:25:26.368Z,12.59
2022-08-07T05:26:18.823Z,12.60
2022-08-07T05:26:58.715Z,12.61
2022-08-07T05:28:23.276Z,12.63
2022-08-07T05:29:04.250Z,12.64
2022-08-07T05:29:51.214Z,12.67
2022-08-07T05:30:30.270Z,12.67
2022-08-07T05:31:06.468Z,12.67
2022-08-07T05:31:40.467Z,12.70
2022-08-07T05:32:24.732Z,12.72
2022-08-07T05:32:58.399Z,12.72
2022-08-07T05:33:35.520Z,12.73
2022-08-07T05:34:12.242Z,12.74
2022-08-07T05:34:44.088Z,12.76
2022-08-07T05:35:23.484Z,12.78
2022-08-07T05:36:06.904Z,12.80
2022-08-07T05:36:49.029Z,12.83
2022-08-07T05:37:25.625Z,12.83
2022-08-07T05:38:08.624Z,12.86
2022-08-07T05:39:01.498Z,12.87
2022-08-07T05:40:07.140Z,12.91
2022-08-07T05:40:51.515Z,12.94
2022-08-07T05:41:23.811Z,12.95
2022-08-07T05:42:15.479Z,12.97
2022-08-07T05:43:05.508Z,12.99
2022-08-07T05:44:07.780Z,13.01
2022-08-07T05:45:14.546Z,13.04
2022-08-07T05:45:49.787Z,13.05
2022-08-07T05:46:29.518Z,13.07
2022-08-07T05:47:01.750Z,13.08
2022-08-07T05:48:40.793Z,13.11
2022-08-07T05:49:40.430Z,13.14
2022-08-07T05:50:12.956Z,13.16
2022-08-07T05:50:45.202Z,13.17
2022-08-07T05:51:19.404Z,13.18
2022-08-07T05:51:52.572Z,13.19
2022-08-07T05:52:32.169Z,13.20
2022-08-07T05:54:12.422Z,13.22
2022-08-07T05:55:25.428Z,13.25
2022-08-07T05:56:19.486Z,13.27
2022-08-07T05:56:53.736Z,13.28
2022-08-07T05:57:30.119Z,13.29
2022-08-07T05:58:06.679Z,13.32
2022-08-07T05:58:49.310Z,13.34
2022-08-07T05:59:25.463Z,13.36
2022-08-07T06:00:19.179Z,13.38
2022-08-07T06:00:53.207Z,13.39
2022-08-07T06:01:27.402Z,13.41
2022-08-07T06:02:08.284Z,13.43
2022-08-07T06:02:45.038Z,13.44
2022-08-07T06:03:19.974Z,13.47
2022-08-07T06:04:15.295Z,13.47
2022-08-07T06:04:55.000Z,13.50
2022-08-07T06:05:28.731Z,13.52
2022-08-07T06:06:01.935Z,13.52
2022-08-07T06:06:34.761Z,13.54
2022-08-07T06:07:07.286Z,13.53
2022-08-07T06:08:13.960Z,13.54
2022-08-07T06:08:32.269Z,13.56
2022-08-07T06:09:05.175Z,13.56
2022-08-07T06:10:04.229Z,13.57
2022-08-07T06:10:29.270Z,13.57
2022-08-07T06:11:00.903Z,13.57
2022-08-07T06:11:35.769Z,13.58
2022-08-07T06:12:07.919Z,13.61
2022-08-07T06:12:39.324Z,13.62
2022-08-07T06:13:13.305Z,13.64
2022-08-07T06:14:11.478Z,13.66
2022-08-07T06:14:38.167Z,13.68
2022-08-07T06:15:16.097Z,13.70
2022-08-07T06:15:49.959Z,13.71
2022-08-07T06:16:23.388Z,13.74
2022-08-07T06:17:01.686Z,13.74
2022-08-07T06:17:38.916Z,13.76
2022-08-07T06:18:13.936Z,13.78
2022-08-07T06:18:51.540Z,13.81
2022-08-07T06:19:52.070Z,13.81
2022-08-07T06:20:32.199Z,13.84
2022-08-07T06:22:14.889Z,13.86
2022-08-07T06:22:14.891Z,13.89
2022-08-07T06:23:02.066Z,13.90
2022-08-07T06:24:38.657Z,13.93
2022-08-07T06:24:58.428Z,13.94
2022-08-07T06:25:34.884Z,13.95
2022-08-07T06:26:12.981Z,13.97
2022-08-07T06:26:44.521Z,13.98
2022-08-07T06:27:44.132Z,14.00
2022-08-07T06:28:17.379Z,14.02
2022-08-07T06:29:01.198Z,14.04
2022-08-07T06:29:34.114Z,14.06
2022-08-07T06:30:06.144Z,14.07
2022-08-07T06:30:56.379Z,14.11
2022-08-07T06:32:18.705Z,14.14
2022-08-07T06:32:50.120Z,14.16
2022-08-07T06:33:22.867Z,14.18
2022-08-07T06:33:54.717Z,14.21
2022-08-07T06:34:28.075Z,14.23
2022-08-07T06:35:01.171Z,14.26
2022-08-07T06:36:35.446Z,14.30
2022-08-07T06:37:07.006Z,14.34
2022-08-07T06:37:44.342Z,14.36
2022-08-07T06:38:20.031Z,14.37
2022-08-07T06:38:59.393Z,14.40
2022-08-07T06:40:16.943Z,14.44
2022-08-07T06:40:51.236Z,14.47
2022-08-07T06:42:02.628Z,14.49
2022-08-07T06:42:26.604Z,14.52
2022-08-07T06:43:21.412Z,14.52
2022-08-07T06:43:59.393Z,14.56
2022-08-07T06:44:36.941Z,14.58
2022-08-07T06:45:17.885Z,14.60
2022-08-07T06:46:39.955Z,14.64
2022-08-07T06:47:15.342Z,14.66
2022-08-07T06:47:57.071Z,14.68
2022-08-07T06:48:30.317Z,14.71
2022-08-07T06:49:04.427Z,14.72
2022-08-07T06:49:36.277Z,14.74
2022-08-07T06:50:24.470Z,14.78
2022-08-07T06:51:00.119Z,14.79
2022-08-07T06:51:49.610Z,14.80
2022-08-07T06:52:31.928Z,14.82
2022-08-07T06:53:49.226Z,14.86
2022-08-07T06:55:29.815Z,14.90
2022-08-07T06:55:31.349Z,14.93
2022-08-07T06:55:59.891Z,14.95
2022-08-07T06:56:48.471Z,14.99
2022-08-07T06:57:21.787Z,15.03
2022-08-07T06:58:13.799Z,15.05
2022-08-07T07:00:11.805Z,15.10
2022-08-07T07:00:12.871Z,15.08
2022-08-07T07:00:38.217Z,15.12
2022-08-07T07:01:12.236Z,15.15
2022-08-07T07:01:50.986Z,15.16
2022-08-07T07:02:48.345Z,15.20
2022-08-07T07:03:39.872Z,15.23
2022-08-07T07:04:28.366Z,15.26
2022-08-07T07:05:04.815Z,15.29
2022-08-07T07:06:02.532Z,15.30
2022-08-07T07:06:28.507Z,15.32
2022-08-07T07:07:02.421Z,15.35
2022-08-07T07:07:59.378Z,15.38
2022-08-07T07:08:39.755Z,15.42
2022-08-07T07:09:20.511Z,15.42
2022-08-07T07:09:54.822Z,15.46
2022-08-07T07:10:31.396Z,15.47
2022-08-07T07:11:12.983Z,15.48
2022-08-07T07:12:08.714Z,15.50
2022-08-07T07:12:53.764Z,15.55
2022-08-07T07:13:55.690Z,15.56
2022-08-07T07:14:32.625Z,15.60
2022-08-07T07:15:35.782Z,15.62
2022-08-07T07:16:14.383Z,15.65
2022-08-07T07:16:53.609Z,15.65
2022-08-07T07:17:50.663Z,15.69
2022-08-07T07:18:37.683Z,15.71
2022-08-07T07:19:55.176Z,15.73
2022-08-07T07:20:35.749Z,15.77
2022-08-07T07:22:04.166Z,15.82
2022-08-07T07:24:05.526Z,15.87
2022-08-07T07:24:08.868Z,15.92
2022-08-07T07:24:24.747Z,15.96
2022-08-07T07:25:13.928Z,15.99
2022-08-07T07:26:34.428Z,16.02
2022-08-07T07:26:49.730Z,16.05
2022-08-07T07:27:35.713Z,16.06
2022-08-07T07:28:29.948Z,16.10
2022-08-07T07:29:38.413Z,16.13
2022-08-07T07:30:13.381Z,16.18
2022-08-07T07:31:10.488Z,16.22
2022-08-07T07:31:47.002Z,16.24
2022-08-07T07:32:20.918Z,16.26
2022-08-07T07:32:54.901Z,16.29
2022-08-07T07:33:29.893Z,16.34
2022-08-07T07:34:06.673Z,16.35
2022-08-07T07:34:42.519Z,16.36
2022-08-07T07:35:15.157Z,16.37
2022-08-07T07:36:04.122Z,16.38
2022-08-07T07:36:40.479Z,16.42
2022-08-07T07:37:45.192Z,16.45
2022-08-07T07:38:08.612Z,16.50
2022-08-07T07:38:43.519Z,16.52
2022-08-07T07:39:17.713Z,16.55
2022-08-07T07:41:09.193Z,16.67
2022-08-07T07:42:01.805Z,16.69
2022-08-07T07:42:35.847Z,16.75
2022-08-07T07:43:15.367Z,16.76
2022-08-07T07:44:16.899Z,16.79
2022-08-07T07:44:45.725Z,16.82
2022-08-07T07:46:37.999Z,16.85
2022-08-07T07:46:39.905Z,16.87
2022-08-07T07:47:14.259Z,16.92
2022-08-07T07:47:57.638Z,16.96
2022-08-07T07:48:35.980Z,16.99
2022-08-07T07:50:34.008Z,17.06
2022-08-07T07:50:54.073Z,17.08
2022-08-07T07:51:27.675Z,17.10
2022-08-07T07:52:01.112Z,17.11
2022-08-07T07:52:36.454Z,17.14
2022-08-07T07:53:20.551Z,17.16
2022-08-07T07:53:58.373Z,17.20
2022-08-07T07:54:31.610Z,17.21
2022-08-07T07:56:00.900Z,17.23
2022-08-07T07:56:35.323Z,17.25
2022-08-07T07:57:08.887Z,17.26
2022-08-07T07:57:52.132Z,17.28
2022-08-07T07:58:29.245Z,17.33
2022-08-07T07:59:23.784Z,17.37
2022-08-07T08:00:14.993Z,17.40
2022-08-07T08:02:01.610Z,17.43
2022-08-07T08:02:33.748Z,17.44
2022-08-07T08:03:09.240Z,17.46
2022-08-07T08:04:09.878Z,17.49
2022-08-07T08:05:00.147Z,17.50
2022-08-07T08:05:54.958Z,17.52
2022-08-07T08:06:27.924Z,17.56
2022-08-07T08:07:02.832Z,17.58
2022-08-07T08:07:42.341Z,17.59
2022-08-07T08:08:36.870Z,17.64
2022-08-07T08:09:09.713Z,17.67
2022-08-07T08:09:52.151Z,17.71
2022-08-07T08:10:38.969Z,17.74
2022-08-07T08:11:16.489Z,17.75
2022-08-07T08:12:02.073Z,17.79
2022-08-07T08:12:52.242Z,17.83
2022-08-07T08:13:33.216Z,17.84
2022-08-07T08:14:08.343Z,17.86
2022-08-07T08:14:42.300Z,17.87
2022-08-07T08:15:13.806Z,17.89
2022-08-07T08:16:42.520Z,17.95
2022-08-07T08:17:57.733Z,17.98
2022-08-07T08:18:18.111Z,18.01
2022-08-07T08:18:36.693Z,17.91
2022-08-07T08:19:18.013Z,18.06
2022-08-07T08:20:31.970Z,18.11
2022-08-07T08:21:05.028Z,18.15
2022-08-07T08:22:03.403Z,18.16
2022-08-07T08:23:00.109Z,18.17
2022-08-07T08:23:52.772Z,18.18
2022-08-07T08:24:47.667Z,18.20
2022-08-07T08:26:07.370Z,18.24
2022-08-07T08:26:58.851Z,18.28
2022-08-07T08:27:39.790Z,18.33
2022-08-07T08:28:37.290Z,18.37
2022-08-07T08:29:15.021Z,18.43
2022-08-07T08:29:54.562Z,18.47
2022-08-07T08:30:51.068Z,18.51
2022-08-07T08:31:30.111Z,18.53
2022-08-07T08:32:25.123Z,18.55
2022-08-07T08:33:02.884Z,18.55
2022-08-07T08:33:36.995Z,18.57
2022-08-07T08:34:12.554Z,18.59
2022-08-07T08:35:00.076Z,18.61
2022-08-07T08:35:39.480Z,18.60
2022-08-07T08:36:33.867Z,18.60
2022-08-07T08:37:09.946Z,18.61
2022-08-07T08:38:04.743Z,18.66
2022-08-07T08:38:41.325Z,18.67
2022-08-07T08:39:13.341Z,18.69
2022-08-07T08:39:54.885Z,18.72
2022-08-07T08:40:35.900Z,18.75
2022-08-07T08:41:17.347Z,18.78
2022-08-07T08:42:04.131Z,18.81
2022-08-07T08:42:45.010Z,18.83
2022-08-07T08:44:57.894Z,18.95
2022-08-07T08:45:41.830Z,18.97
2022-08-07T08:46:41.462Z,18.99
2022-08-07T08:47:52.387Z,19.00
2022-08-07T08:48:35.786Z,19.01
2022-08-07T08:49:46.571Z,19.05
2022-08-07T08:50:52.317Z,19.06
2022-08-07T08:52:01.009Z,19.10
2022-08-07T08:52:40.989Z,19.17
2022-08-07T08:53:34.746Z,19.22
2022-08-07T08:54:24.911Z,19.25
2022-08-07T08:55:04.610Z,19.28
2022-08-07T08:55:55.211Z,19.33
2022-08-07T08:56:47.091Z,19.39
2022-08-07T08:57:27.757Z,19.41
2022-08-07T08:58:24.734Z,19.41
2022-08-07T08:59:12.922Z,19.42
2022-08-07T09:00:00.630Z,19.46
2022-08-07T09:00:42.667Z,19.51
2022-08-07T09:01:24.703Z,19.54
2022-08-07T09:02:16.634Z,19.57
2022-08-07T09:03:18.937Z,19.61
2022-08-07T09:04:33.528Z,19.67
2022-08-07T09:06:11.565Z,19.72
2022-08-07T09:06:55.639Z,19.74
2022-08-07T09:07:46.210Z,19.78
2022-08-07T09:08:35.780Z,19.84
2022-08-07T09:09:56.673Z,19.86
2022-08-07T09:10:51.867Z,19.91
2022-08-07T09:11:51.208Z,19.94
2022-08-07T09:12:53.596Z,19.99
2022-08-07T09:13:38.298Z,20.00
2022-08-07T09:14:35.536Z,20.01
2022-08-07T09:16:24.188Z,20.02
2022-08-07T09:17:15.912Z,20.06
2022-08-07T09:18:27.840Z,20.10
2022-08-07T09:19:57.320Z,20.07
2022-08-07T09:21:01.057Z,20.12